Flight Track Log - Related Links

Times and Time Zones

All times are in EDT time to prevent confusion due to time zone crossing. See the DLH1150 flight status page for this flight to view local times or setup timezone preferences in your user account.

Time Position Orientation Groundspeed Altitude Reporting Facility
EDT Latitude Longitude Course Direction KTS MPH feet Rate Location/Type
Tue 07:36:11 AM 50.0450 8.5630 233° Southwest 10 12  Level FlightAware ADS-B
Tue 07:40:15 AM 50.0450 8.5620 270° West 26 30 104 Level FlightAware ADS-B
Tue 07:40:31 AM 50.0440 8.5610 213° Southwest 29 33 155 Level FlightAware ADS-B
Tue 07:40:41 AM 50.0440 8.5600 270° West 29 33 160 Level FlightAware ADS-B
Tue 07:41:11 AM 50.0430 8.5600 180° South 31 36 163 Level FlightAware ADS-B
Tue 07:41:39 AM 50.0420 8.5570 243° Southwest 22 25 174 Level FlightAware ADS-B
Tue 07:41:54 AM 50.0410 8.5550 232° Southwest 24 28 186 Level FlightAware ADS-B
Tue 07:42:18 AM 50.0410 8.5520 270° West 17 20 193 Level FlightAware ADS-B
Tue 07:42:51 AM 50.0400 8.5480 249° West 24 28 205 Level FlightAware ADS-B
Tue 07:43:11 AM 50.0390 8.5440 249° West 19 22 224 Level FlightAware ADS-B
Tue 07:43:48 AM 50.0370 8.5400 232° Southwest 22 25 238 Level FlightAware ADS-B
Tue 07:44:13 AM 50.0370 8.5360 270° West 17 20 268 Level FlightAware ADS-B
Tue 07:44:39 AM 50.0360 8.5330 243° Southwest 23 26 293 Level FlightAware ADS-B
Tue 07:45:07 AM 50.0350 8.5290 249° West 32 37 325 Level FlightAware ADS-B
Tue 07:45:33 AM 50.0340 8.5280 213° Southwest 30 35 368 Level FlightAware ADS-B
Tue 07:45:53 AM 50.0340 8.5260 270° West 19 22 419 Level FlightAware ADS-B
Tue 07:47:49 AM 50.0310 8.5260 180° South 74 85 470 Level FlightAware ADS-B
Tue 07:48:11 AM 50.0190 8.5260 180° South 165 190 1,560 Level FlightAware ADS-B
Tue 07:48:39 AM 49.9950 8.5270 178° South 182 209 1,300 1,543 Climbing FlightAware ADS-B
Tue 07:49:21 AM 49.9620 8.5300 177° South 190 219 1,800 1,200 Climbing FlightAware ADS-B
Tue 07:49:44 AM 49.9350 8.5320 177° South 240 276 2,600 1,950 Climbing FlightAware ADS-B
Tue 07:50:01 AM 49.9170 8.5330 178° South 263 303 3,100 2,800 Climbing FlightAware ADS-B
Tue 07:50:29 AM 49.8790 8.5360 177° South 258 297 4,700 3,158 Climbing FlightAware ADS-B
Tue 07:50:39 AM 49.8690 8.5360 180° South 261 300 5,100 2,651 Climbing FlightAware ADS-B
Tue 07:51:12 AM 49.8270 8.5260 189° South 265 305 6,600 2,762 Climbing FlightAware ADS-B
Tue 07:51:42 AM 49.7900 8.5120 194° South 271 312 8,000 2,690 Climbing FlightAware ADS-B
Tue 07:52:10 AM 49.7560 8.4990 194° South 277 319 9,200 2,455 Climbing FlightAware ADS-B
Tue 07:52:26 AM 49.7360 8.4910 194° South 282 325 9,800 2,357 Climbing FlightAware ADS-B
Tue 07:53:06 AM 49.6840 8.4720 193° South 293 337 11,400 2,475 Climbing FlightAware ADS-B
Tue 07:53:46 AM 49.6310 8.4520 194° South 295 339 13,100 1,857 Climbing FlightAware ADS-B
Tue 07:54:30 AM 49.5690 8.4290 194° South 330 380 14,000 1,071 Climbing FlightAware ADS-B
Tue 07:55:10 AM 49.5080 8.4070 193° South 366 421 14,600 1,357 Climbing FlightAware ADS-B
Tue 07:55:54 AM 49.4320 8.3790 193° South 382 440 15,900 1,857 Climbing FlightAware ADS-B
Tue 07:56:34 AM 49.3620 8.3530 194° South 390 449 17,200 1,948 Climbing FlightAware ADS-B
Tue 07:57:11 AM 49.2960 8.3290 193° South 396 456 18,400 1,630 Climbing FlightAware ADS-B
Tue 07:58:06 AM 49.1990 8.2940 193° South 411 473 19,700 1,516 Climbing FlightAware ADS-B
Tue 07:58:46 AM 49.1230 8.2660 194° South 412 474 20,800 1,500 Climbing FlightAware ADS-B
Tue 07:59:26 AM 49.0460 8.2380 193° South 429 494 21,700 1,588 Climbing FlightAware ADS-B
Tue 07:59:54 AM 48.9890 8.2170 194° South 427 491 22,600 1,579 Climbing FlightAware ADS-B
Tue 08:00:42 AM 48.9000 8.1850 193° South 434 499 23,700 1,333 Climbing FlightAware ADS-B
Tue 08:01:24 AM 48.8150 8.1540 194° South 440 506 24,600 1,200 Climbing FlightAware ADS-B
Tue 08:02:02 AM 48.7390 8.1270 193° South 446 513 25,300 1,247 Climbing FlightAware ADS-B
Tue 08:02:41 AM 48.6630 8.1000 193° South 448 516 26,200 1,143 Climbing FlightAware ADS-B
Tue 08:03:26 AM 48.5730 8.0680 193° South 446 513 26,900 918 Climbing FlightAware ADS-B
Tue 08:04:06 AM 48.4950 8.0410 193° South 450 518 27,500 918 Climbing FlightAware ADS-B
Tue 08:04:51 AM 48.3960 8.0060 193° South 463 533 28,200 977 Climbing FlightAware ADS-B
Tue 08:05:32 AM 48.3100 7.9760 193° South 465 535 28,900 975 Climbing FlightAware ADS-B
Tue 08:06:11 AM 48.2280 7.9470 193° South 460 529 29,500 1,030 Climbing FlightAware ADS-B
Tue 08:07:11 AM 48.1020 7.9030 193° South 465 535 30,600 1,010 Climbing FlightAware ADS-B
Tue 08:07:52 AM 48.0160 7.8730 193° South 459 528 31,200 918 Climbing FlightAware ADS-B
Tue 08:08:36 AM 47.9240 7.8410 193° South 463 533 31,900 1,074 Climbing FlightAware ADS-B
Tue 08:09:27 AM 47.8180 7.8050 193° South 459 528 32,900 1,121 Climbing FlightAware ADS-B
Tue 08:10:07 AM 47.7360 7.7760 193° South 448 516 33,600 1,059 Climbing FlightAware ADS-B
Tue 08:10:52 AM 47.6440 7.7450 193° South 447 514 34,400 1,012 Climbing FlightAware ADS-B
Tue 08:11:30 AM 47.5660 7.7180 193° South 442 509 35,000 474 Climbing FlightAware ADS-B
Tue 08:12:08 AM 47.4900 7.6920 193° South 451 519 35,000  Level FlightAware ADS-B
Tue 08:12:56 AM 47.3990 7.6610 193° South 460 529 35,000  Level FlightAware ADS-B
Tue 08:13:36 AM 47.3110 7.6270 195° South 464 534 35,000  Level FlightAware ADS-B
Tue 08:14:26 AM 47.2090 7.5890 194° South 460 529 35,000  Level FlightAware ADS-B
Tue 08:15:06 AM 47.1290 7.5590 194° South 455 524 35,000  Level FlightAware ADS-B
Tue 08:15:51 AM 47.0370 7.5190 197° South 453 521 35,000  Level FlightAware ADS-B
Tue 08:16:26 AM 46.9660 7.4810 200° South 453 521 35,000  Level FlightAware ADS-B
Tue 08:17:06 AM 46.9030 7.4030 220° Southwest 452 520 35,000  Level FlightAware ADS-B
Tue 08:17:51 AM 46.8580 7.2910 240° Southwest 450 518 35,000  Level FlightAware ADS-B
Tue 08:18:31 AM 46.8150 7.1800 241° Southwest 450 518 35,000  Level FlightAware ADS-B
Tue 08:19:16 AM 46.7690 7.0610 241° Southwest 452 520 35,000  Level FlightAware ADS-B
Tue 08:19:56 AM 46.7280 6.9550 241° Southwest 455 524 35,000  Level FlightAware ADS-B
Tue 08:20:36 AM 46.6890 6.8500 242° Southwest 454 522 35,000  Level FlightAware ADS-B
Tue 08:21:19 AM 46.6670 6.7180 256° West 450 518 35,000 69 Level FlightAware ADS-B
Tue 08:22:03 AM 46.6500 6.5870 259° West 448 516 35,100  Climbing FlightAware ADS-B
Tue 08:22:41 AM 46.6340 6.4720 259° West 449 517 35,000 -71 Descending FlightAware ADS-B
Tue 08:23:28 AM 46.6150 6.3370 258° West 447 514 35,000  Level FlightAware ADS-B
Tue 08:24:08 AM 46.5970 6.2170 258° West 446 513 35,000  Level FlightAware ADS-B
Tue 08:24:51 AM 46.5790 6.0940 258° West 446 513 35,000  Level FlightAware ADS-B
Tue 08:25:31 AM 46.5620 5.9740 258° West 447 514 35,000  Level FlightAware ADS-B
Tue 08:26:11 AM 46.5470 5.8630 259° West 445 512 35,000  Level FlightAware ADS-B
Tue 08:26:54 AM 46.5260 5.7320 257° West 446 513 35,000  Level FlightAware ADS-B
Tue 08:27:37 AM 46.4810 5.6250 239° Southwest 451 519 35,000  Level FlightAware ADS-B
Tue 08:28:21 AM 46.4190 5.5270 227° Southwest 452 520 35,000  Level FlightAware ADS-B
Tue 08:29:01 AM 46.3630 5.4370 228° Southwest 452 520 35,000  Level FlightAware ADS-B
Tue 08:29:41 AM 46.3050 5.3460 227° Southwest 452 520 35,000  Level FlightAware ADS-B
Tue 08:30:25 AM 46.2430 5.2490 227° Southwest 451 519 35,000  Level FlightAware ADS-B
Tue 08:31:07 AM 46.1850 5.1590 227° Southwest 449 517 35,000  Level FlightAware ADS-B
Tue 08:31:51 AM 46.1230 5.0620 227° Southwest 447 514 35,000  Level FlightAware ADS-B
Tue 08:32:27 AM 46.0730 4.9840 227° Southwest 445 512 35,000  Level FlightAware ADS-B
Tue 08:33:07 AM 46.0250 4.8900 234° Southwest 440 506 35,000  Level FlightAware ADS-B
Tue 08:33:45 AM 45.9880 4.7960 240° Southwest 437 503 35,000  Level FlightAware ADS-B
Tue 08:34:31 AM 45.9400 4.6780 240° Southwest 436 502 35,000  Level FlightAware ADS-B
Tue 08:35:11 AM 45.8990 4.5750 240° Southwest 435 501 35,000  Level FlightAware ADS-B
Tue 08:35:55 AM 45.8560 4.4680 240° Southwest 435 501 35,000  Level FlightAware ADS-B
Tue 08:36:35 AM 45.8170 4.3710 240° Southwest 434 499 35,000  Level FlightAware ADS-B
Tue 08:37:13 AM 45.7780 4.2740 240° Southwest 432 497 35,000  Level FlightAware ADS-B
Tue 08:37:55 AM 45.7330 4.1730 237° Southwest 432 497 35,000  Level FlightAware ADS-B
Tue 08:38:35 AM 45.6840 4.0790 233° Southwest 434 499 35,000  Level FlightAware ADS-B
Tue 08:39:17 AM 45.6350 3.9870 233° Southwest 436 502 35,000  Level FlightAware ADS-B
Tue 08:40:01 AM 45.5800 3.8840 233° Southwest 440 506 35,000  Level FlightAware ADS-B
Tue 08:40:43 AM 45.5290 3.7870 233° Southwest 442 509 35,000  Level FlightAware ADS-B
Tue 08:41:24 AM 45.4780 3.6920 233° Southwest 443 510 35,000 71 Level FlightAware ADS-B
Tue 08:42:07 AM 45.4240 3.5930 232° Southwest 443 510 35,100  Climbing FlightAware ADS-B
Tue 08:42:43 AM 45.3800 3.5100 233° Southwest 441 507 35,000 -80 Descending FlightAware ADS-B
Tue 08:43:22 AM 45.3340 3.4250 232° Southwest 441 507 35,000  Level FlightAware ADS-B
Tue 08:44:05 AM 45.2790 3.3240 232° Southwest 440 506 35,000  Level FlightAware ADS-B
Tue 08:44:41 AM 45.2340 3.2400 233° Southwest 438 504 35,000  Level FlightAware ADS-B
Tue 08:45:22 AM 45.1850 3.1520 232° Southwest 437 503 35,000  Level FlightAware ADS-B
Tue 08:46:01 AM 45.1350 3.0590 233° Southwest 436 502 35,000  Level FlightAware ADS-B
Tue 08:46:45 AM 45.0810 2.9620 232° Southwest 436 502 35,000  Level FlightAware ADS-B
Tue 08:47:26 AM 45.0320 2.8730 232° Southwest 436 502 35,000  Level FlightAware ADS-B
Tue 08:48:09 AM 44.9760 2.7720 232° Southwest 435 501 35,000  Level FlightAware ADS-B
Tue 08:48:49 AM 44.9280 2.6850 232° Southwest 434 499 35,000  Level FlightAware ADS-B
Tue 08:49:27 AM 44.8800 2.5980 232° Southwest 434 499 35,000  Level FlightAware ADS-B
Tue 08:50:07 AM 44.8300 2.5100 231° Southwest 435 501 35,000  Level FlightAware ADS-B
Tue 08:50:50 AM 44.7750 2.4190 230° Southwest 436 502 35,000  Level FlightAware ADS-B
Tue 08:51:27 AM 44.7210 2.3430 225° Southwest 435 501 35,000  Level FlightAware ADS-B
Tue 08:52:07 AM 44.6640 2.2640 225° Southwest 434 499 35,000  Level FlightAware ADS-B
Tue 08:52:39 AM 44.6180 2.1980 226° Southwest 431 496 35,000  Level FlightAware ADS-B
Tue 08:53:14 AM 44.5700 2.1310 225° Southwest 429 494 35,000  Level FlightAware ADS-B
Tue 08:53:56 AM 44.5120 2.0510 225° Southwest 429 494 35,000  Level FlightAware ADS-B
Tue 08:54:34 AM 44.4570 1.9750 225° Southwest 428 493 35,000  Level FlightAware ADS-B
Tue 08:55:15 AM 44.4000 1.8950 225° Southwest 427 491 35,000  Level FlightAware ADS-B
Tue 08:55:59 AM 44.3380 1.8100 224° Southwest 427 491 35,000  Level FlightAware ADS-B
Tue 08:56:44 AM 44.2750 1.7230 225° Southwest 428 493 35,000  Level FlightAware ADS-B
Tue 08:57:24 AM 44.2180 1.6460 224° Southwest 427 491 35,000  Level FlightAware ADS-B
Tue 08:58:08 AM 44.1560 1.5610 225° Southwest 427 491 35,000  Level FlightAware ADS-B
Tue 08:58:48 AM 44.1000 1.4840 225° Southwest 427 491 35,000  Level FlightAware ADS-B
Tue 08:59:28 AM 44.0430 1.4080 224° Southwest 427 491 35,000  Level FlightAware ADS-B
Tue 08:59:57 AM 44.0020 1.3520 225° Southwest 425 489 35,000 82 Level FlightAware ADS-B
Tue 09:00:41 AM 43.9410 1.2690 224° Southwest 420 483 35,100  Climbing FlightAware ADS-B
Tue 09:01:21 AM 43.8840 1.1930 224° Southwest 414 476 35,000 -72 Descending FlightAware ADS-B
Tue 09:02:04 AM 43.8270 1.1160 224° Southwest 409 471 35,000  Level FlightAware ADS-B
Tue 09:02:44 AM 43.7730 1.0430 224° Southwest 408 470 35,000  Level FlightAware ADS-B
Tue 09:03:29 AM 43.7130 0.9630 224° Southwest 408 470 35,000 -71 Level FlightAware ADS-B
Tue 09:04:09 AM 43.6590 0.8910 224° Southwest 410 472 34,900  Descending FlightAware ADS-B
Tue 09:04:48 AM 43.6040 0.8180 224° Southwest 413 475 35,000 72 Climbing FlightAware ADS-B
Tue 09:05:32 AM 43.5420 0.7350 224° Southwest 420 483 35,000  Level FlightAware ADS-B
Tue 09:06:16 AM 43.4810 0.6550 224° Southwest 427 491 35,000 70 Level FlightAware ADS-B
Tue 09:06:58 AM 43.4190 0.5730 224° Southwest 431 496 35,100 70 Climbing FlightAware ADS-B
Tue 09:07:42 AM 43.3570 0.4920 224° Southwest 436 502 35,100 -71 Level FlightAware ADS-B
Tue 09:08:22 AM 43.3000 0.4170 224° Southwest 437 503 35,000 -73 Descending FlightAware ADS-B
Tue 09:09:04 AM 43.2360 0.3330 224° Southwest 439 505 35,000  Level FlightAware ADS-B
Tue 09:09:36 AM 43.1900 0.2730 224° Southwest 442 509 35,000  Level FlightAware ADS-B
Tue 09:10:20 AM 43.1240 0.1880 223° Southwest 444 511 35,000  Level FlightAware ADS-B
Tue 09:11:02 AM 43.0640 0.1090 224° Southwest 435 501 35,000  Level FlightAware ADS-B
Tue 09:11:47 AM 42.9980 0.0250 223° Southwest 435 501 35,000  Level FlightAware ADS-B
Tue 09:12:27 AM 42.9360 -0.0550 223° Southwest 437 503 35,000  Level FlightAware ADS-B
Tue 09:13:03 AM 42.8940 -0.1090 223° Southwest 439 505 35,000  Level FlightAware ADS-B
Tue 09:13:49 AM 42.8160 -0.2070 223° Southwest 440 506 35,000  Level FlightAware ADS-B
Tue 09:14:33 AM 42.7420 -0.2760 214° Southwest 440 506 35,000  Level FlightAware ADS-B
Tue 09:15:15 AM 42.6670 -0.3300 208° Southwest 441 507 35,000  Level FlightAware ADS-B
Tue 09:15:59 AM 42.5870 -0.3870 208° Southwest 443 510 35,000  Level FlightAware ADS-B
Tue 09:16:40 AM 42.5140 -0.4380 207° Southwest 445 512 35,000  Level FlightAware ADS-B
Tue 09:17:23 AM 42.4340 -0.4950 208° Southwest 445 512 35,000  Level FlightAware ADS-B
Tue 09:17:59 AM 42.3680 -0.5410 207° Southwest 446 513 35,000  Level FlightAware ADS-B
Tue 09:18:47 AM 42.2800 -0.6020 207° Southwest 447 514 35,000  Level FlightAware ADS-B
Tue 09:19:25 AM 42.2100 -0.6510 207° Southwest 446 513 35,000  Level FlightAware ADS-B
Tue 09:20:11 AM 42.1270 -0.7120 209° Southwest 445 512 35,000  Level FlightAware ADS-B
Tue 09:20:53 AM 42.0550 -0.7700 211° Southwest 445 512 35,000  Level FlightAware ADS-B
Tue 09:21:33 AM 41.9830 -0.8300 212° Southwest 444 511 35,000  Level FlightAware ADS-B
Tue 09:22:15 AM 41.9110 -0.8930 213° Southwest 442 509 35,000  Level FlightAware ADS-B
Tue 09:22:55 AM 41.8440 -0.9560 215° Southwest 441 507 35,000  Level FlightAware ADS-B
Tue 09:23:39 AM 41.7700 -1.0250 215° Southwest 440 506 35,000  Level FlightAware ADS-B
Tue 09:24:20 AM 41.7020 -1.0880 215° Southwest 439 505 35,000  Level FlightAware ADS-B
Tue 09:25:02 AM 41.6320 -1.1540 215° Southwest 437 503 35,000  Level FlightAware ADS-B
Tue 09:25:38 AM 41.5740 -1.2070 214° Southwest 437 503 35,000  Level FlightAware ADS-B
Tue 09:26:22 AM 41.4990 -1.2760 215° Southwest 435 501 35,000  Level FlightAware ADS-B
Tue 09:27:02 AM 41.4340 -1.3370 215° Southwest 434 499 35,000  Level FlightAware ADS-B
Tue 09:27:38 AM 41.3750 -1.3930 215° Southwest 435 501 35,000  Level FlightAware ADS-B
Tue 09:28:16 AM 41.3120 -1.4520 215° Southwest 438 504 35,000  Level FlightAware ADS-B
Tue 09:29:02 AM 41.2320 -1.5170 211° Southwest 445 512 35,000  Level FlightAware ADS-B
Tue 09:29:40 AM 41.1640 -1.5690 210° Southwest 449 517 35,000 73 Level FlightAware ADS-B
Tue 09:30:24 AM 41.0830 -1.6320 210° Southwest 449 517 35,100 68 Climbing FlightAware ADS-B
Tue 09:31:08 AM 41.0030 -1.6930 210° Southwest 450 518 35,100 -71 Level FlightAware ADS-B
Tue 09:31:48 AM 40.9330 -1.7460 210° Southwest 450 518 35,000 -78 Descending FlightAware ADS-B
Tue 09:32:25 AM 40.8690 -1.7950 210° Southwest 449 517 35,000  Level FlightAware ADS-B
Tue 09:33:06 AM 40.7930 -1.8530 210° Southwest 447 514 35,000  Level FlightAware ADS-B
Tue 09:33:50 AM 40.7140 -1.9120 210° Southwest 445 512 35,000  Level FlightAware ADS-B
Tue 09:34:22 AM 40.6570 -1.9570 211° Southwest 445 512 35,000  Level FlightAware ADS-B
Tue 09:35:06 AM 40.5830 -2.0150 211° Southwest 443 510 35,000  Level FlightAware ADS-B
Tue 09:35:46 AM 40.5100 -2.0720 211° Southwest 439 505 35,000  Level FlightAware ADS-B
Tue 09:36:28 AM 40.4350 -2.1310 211° Southwest 442 509 35,000  Level FlightAware ADS-B
Tue 09:37:10 AM 40.3620 -2.1870 210° Southwest 441 507 35,000  Level FlightAware ADS-B
Tue 09:37:54 AM 40.2850 -2.2470 211° Southwest 438 504 35,000  Level FlightAware ADS-B
Tue 09:38:30 AM 40.2210 -2.2960 210° Southwest 437 503 35,000  Level FlightAware ADS-B
Tue 09:39:01 AM 40.1690 -2.3370 211° Southwest 435 501 35,000  Level FlightAware ADS-B
Tue 09:39:46 AM 40.0920 -2.3970 211° Southwest 436 502 35,000  Level FlightAware ADS-B
Tue 09:39:54 AM 40.0780 -2.4070 209° Southwest 437 503 35,000  Level FlightAware ADS-B
Tue 09:41:04 AM 39.9530 -2.5030 210° Southwest 440 506 35,000  Level FlightAware ADS-B
Tue 09:41:48 AM 39.8770 -2.5610 210° Southwest 441 507 35,000 74 Level FlightAware ADS-B
Tue 09:42:25 AM 39.8140 -2.6090 210° Southwest 441 507 35,100  Climbing FlightAware ADS-B
Tue 09:43:05 AM 39.7420 -2.6640 210° Southwest 441 507 35,000 -74 Descending FlightAware ADS-B
Tue 09:43:46 AM 39.6700 -2.7190 210° Southwest 440 506 35,000  Level FlightAware ADS-B
Tue 09:44:30 AM 39.5930 -2.7770 210° Southwest 440 506 35,000  Level FlightAware ADS-B
Tue 09:45:10 AM 39.5220 -2.8310 210° Southwest 440 506 35,000  Level FlightAware ADS-B
Tue 09:45:52 AM 39.4490 -2.8850 210° Southwest 441 507 35,000  Level FlightAware ADS-B
Tue 09:46:34 AM 39.3730 -2.9430 211° Southwest 443 510 35,000  Level FlightAware ADS-B
Tue 09:47:14 AM 39.3020 -2.9960 210° Southwest 442 509 35,000  Level FlightAware ADS-B
Tue 09:47:50 AM 39.2390 -3.0430 210° Southwest 442 509 35,000  Level FlightAware ADS-B
Tue 09:48:33 AM 39.1650 -3.0990 210° Southwest 443 510 35,000  Level FlightAware ADS-B
Tue 09:49:12 AM 39.0930 -3.1520 210° Southwest 443 510 35,000  Level FlightAware ADS-B
Tue 09:49:50 AM 39.0290 -3.2000 210° Southwest 444 511 35,000  Level FlightAware ADS-B
Tue 09:50:31 AM 38.9510 -3.2440 204° Southwest 447 514 35,000  Level FlightAware ADS-B
Tue 09:51:11 AM 38.8740 -3.2890 204° Southwest 442 509 35,000  Level FlightAware ADS-B
Tue 09:51:46 AM 38.8130 -3.3380 212° Southwest 443 510 35,000  Level FlightAware ADS-B
Tue 09:52:28 AM 38.7460 -3.3920 212° Southwest 444 511 35,000  Level FlightAware ADS-B
Tue 09:53:12 AM 38.6640 -3.4580 212° Southwest 446 513 35,000  Level FlightAware ADS-B
Tue 09:53:58 AM 38.5840 -3.5230 212° Southwest 447 514 35,000  Level FlightAware ADS-B
Tue 09:54:38 AM 38.5130 -3.5810 213° Southwest 450 518 35,000  Level FlightAware ADS-B
Tue 09:55:16 AM 38.4470 -3.6350 213° Southwest 452 520 35,000  Level FlightAware ADS-B
Tue 09:56:01 AM 38.3690 -3.6970 212° Southwest 454 522 35,000  Level FlightAware ADS-B
Tue 09:56:39 AM 38.2990 -3.7530 212° Southwest 456 525 35,000  Level FlightAware ADS-B
Tue 09:57:19 AM 38.2280 -3.8100 212° Southwest 457 526 35,000 -450 Level FlightAware ADS-B
Tue 09:57:59 AM 38.1560 -3.8680 212° Southwest 457 526 34,400 -1,571 Descending FlightAware ADS-B
Tue 09:58:43 AM 38.0770 -3.9310 212° Southwest 447 514 32,800 -2,175 Descending FlightAware ADS-B
Tue 09:59:19 AM 38.0140 -3.9810 212° Southwest 440 506 31,500 -2,357 Descending FlightAware ADS-B
Tue 10:00:07 AM 37.9310 -4.0460 212° Southwest 436 502 29,500 -2,523 Descending FlightAware ADS-B
Tue 10:00:47 AM 37.8630 -4.1000 212° Southwest 434 499 27,800 -2,512 Descending FlightAware ADS-B
Tue 10:01:33 AM 37.7860 -4.1610 212° Southwest 430 495 25,900 -2,442 Descending FlightAware ADS-B
Tue 10:02:13 AM 37.7190 -4.2140 212° Southwest 422 486 24,300 -2,475 Descending FlightAware ADS-B
Tue 10:02:53 AM 37.6520 -4.2660 212° Southwest 416 479 22,600 -2,458 Descending FlightAware ADS-B
Tue 10:03:36 AM 37.5850 -4.3180 212° Southwest 410 472 20,900 -2,379 Descending FlightAware ADS-B
Tue 10:03:51 AM 37.5560 -4.3300 198° South 411 473 20,300 -1,585 Descending FlightAware ADS-B
Tue 10:04:29 AM 37.4850 -4.3340 183° South 388 447 19,500 -1,179 Descending FlightAware ADS-B
Tue 10:04:47 AM 37.4540 -4.3420 192° South 363 418 19,200 -800 Descending FlightAware ADS-B
Tue 10:04:59 AM 37.4390 -4.3520 208° Southwest 350 403 19,100 -889 Descending FlightAware ADS-B
Tue 10:05:41 AM 37.3850 -4.4030 217° Southwest 323 372 18,400 -1,186 Descending FlightAware ADS-B
Tue 10:06:25 AM 37.3340 -4.4510 217° Southwest 310 357 17,400 -1,429 Descending FlightAware ADS-B
Tue 10:07:05 AM 37.2890 -4.4930 217° Southwest 305 351 16,400 -1,500 Descending FlightAware ADS-B
Tue 10:07:49 AM 37.2400 -4.5400 217° Southwest 295 339 15,300 -1,624 Descending FlightAware ADS-B
Tue 10:08:30 AM 37.1960 -4.5810 217° Southwest 297 342 14,100 -1,683 Descending FlightAware ADS-B
Tue 10:09:11 AM 37.1510 -4.6240 217° Southwest 295 339 13,000 -1,694 Descending FlightAware ADS-B
Tue 10:09:55 AM 37.1030 -4.6710 218° Southwest 293 337 11,700 -1,643 Descending FlightAware ADS-B
Tue 10:10:35 AM 37.0590 -4.7120 217° Southwest 287 330 10,700 -1,645 Descending FlightAware ADS-B
Tue 10:10:57 AM 37.0380 -4.7330 219° Southwest 286 329 10,000 -2,375 Descending FlightAware ADS-B
Tue 10:11:23 AM 37.0100 -4.7600 218° Southwest 288 331 8,800 -2,526 Descending FlightAware ADS-B
Tue 10:11:35 AM 37.0000 -4.7700 219° Southwest 288 331 8,400 -1,674 Descending FlightAware ADS-B
Tue 10:12:06 AM 36.9760 -4.7930 217° Southwest 280 322 7,600 -1,625 Descending FlightAware ADS-B
Tue 10:12:23 AM 36.9480 -4.8200 218° Southwest 262 302 7,100 -1,077 Descending FlightAware ADS-B
Tue 10:12:45 AM 36.9260 -4.8320 204° Southwest 246 283 6,900 -750 Descending FlightAware ADS-B
Tue 10:13:19 AM 36.8960 -4.8090 148° Southeast 230 265 6,400 -1,258 Descending FlightAware ADS-B
Tue 10:13:47 AM 36.8750 -4.7820 134° Southeast 219 252 5,600 -1,385 Descending FlightAware ADS-B
Tue 10:14:11 AM 36.8600 -4.7590 129° Southeast 207 238 5,200 -1,053 Descending FlightAware ADS-B
Tue 10:14:44 AM 36.8400 -4.7320 133° Southeast 197 227 4,600 -1,071 Descending FlightAware ADS-B
Tue 10:15:07 AM 36.8250 -4.7110 132° Southeast 197 227 4,200 -1,059 Descending FlightAware ADS-B
Tue 10:15:35 AM 36.8090 -4.6870 130° Southeast 190 219 3,700 -1,100 Descending FlightAware ADS-B
Tue 10:16:07 AM 36.7910 -4.6610 131° Southeast 186 214 3,100 -1,043 Descending FlightAware ADS-B
Tue 10:16:21 AM 36.7830 -4.6510 135° Southeast 181 208 2,900 -900 Descending FlightAware ADS-B
Tue 10:16:47 AM 36.7690 -4.6310 131° Southeast 174 200 2,500 -840 Descending FlightAware ADS-B
Tue 10:17:11 AM 36.7560 -4.6130 132° Southeast 177 204 2,200 -1,000 Descending FlightAware ADS-B
Tue 10:17:35 AM 36.7430 -4.5940 130° Southeast 165 190 1,700 -964 Descending FlightAware ADS-B
Tue 10:18:07 AM 36.7280 -4.5730 132° Southeast 147 169 1,300 -724 Descending FlightAware ADS-B
Tue 10:18:33 AM 36.7160 -4.5570 133° Southeast 145 167 1,000 -789 Descending FlightAware ADS-B
Tue 10:18:45 AM 36.7110 -4.5490 128° Southeast 145 167 800 -833 Descending FlightAware ADS-B
Tue 10:19:09 AM 36.7000 -4.5340 132° Southeast 145 167 500 -750 Descending FlightAware ADS-B
Tue 10:19:33 AM 36.6900 -4.5200 132° Southeast 143 165 200 -750 Descending FlightAware ADS-B
Tue 10:19:51 AM 36.6820 -4.5090 132° Southeast 143 165 -667 Descending FlightAware ADS-B
Tue 10:20:17 AM 36.6740 -4.4980 132° Southeast 51 59  Level FlightAware ADS-B
Tue 10:20:33 AM 36.6730 -4.4960 122° Southeast 27 31  Level FlightAware ADS-B
Tue 10:20:45 AM 36.6730 -4.4950 90° East 24 28  Level FlightAware ADS-B
Tue 10:21:07 AM 36.6740 -4.4950 360° North 31 36  Level FlightAware ADS-B
Tue 10:21:57 AM 36.6760 -4.4980 310° West 20 23  Level FlightAware ADS-B
Tue 10:22:09 AM 36.6770 -4.4990 321° Northwest 31 36  Level FlightAware ADS-B
Tue 10:22:37 AM 36.6790 -4.4980 22° Northeast 34 39  Level FlightAware ADS-B
Tue 10:23:05 AM 36.6800 -4.4960 58° Northeast 15 17  Level FlightAware ADS-B
Tue 10:23:31 AM 36.6790 -4.4950 141° Southeast 23 26  Level FlightAware ADS-B
Tue 10:26:00 AM 36.6749 -4.4991 219° Southwest  Level Estimated

Login

Don't have an account? Register now (free) for customized features, flight alerts, and more!